createdAt,value
2018-05-14T00:00:58.767Z,116.20
2018-05-14T00:01:58.720Z,110.60
2018-05-14T00:02:59.366Z,111.00
2018-05-14T00:03:58.723Z,119.10
2018-05-14T00:04:58.746Z,110.90
2018-05-14T00:05:58.737Z,111.30
2018-05-14T00:06:58.729Z,112.10
2018-05-14T00:07:58.768Z,114.00
2018-05-14T00:08:58.739Z,116.10
2018-05-14T00:09:58.743Z,118.50
2018-05-14T00:10:58.740Z,116.40
2018-05-14T00:11:58.758Z,115.10
2018-05-14T00:12:58.757Z,116.70
2018-05-14T00:13:58.767Z,115.10
2018-05-14T00:14:58.772Z,113.20
2018-05-14T00:15:59.365Z,111.80
2018-05-14T00:16:58.765Z,114.90
2018-05-14T00:17:58.786Z,113.30
2018-05-14T00:18:58.786Z,114.40
2018-05-14T00:19:58.768Z,112.70
2018-05-14T00:20:58.798Z,111.10
2018-05-14T00:21:58.799Z,111.20
2018-05-14T00:22:58.787Z,114.20
2018-05-14T00:23:58.816Z,113.10
2018-05-14T00:24:58.808Z,111.70
2018-05-14T00:25:58.884Z,110.10
2018-05-14T00:26:58.828Z,106.50
2018-05-14T00:27:58.796Z,109.20
2018-05-14T00:28:58.816Z,109.70
2018-05-14T00:29:58.815Z,110.60
2018-05-14T00:30:58.805Z,112.90
2018-05-14T00:31:58.816Z,113.10
2018-05-14T00:32:58.825Z,110.40
2018-05-14T00:33:58.820Z,113.20
2018-05-14T00:34:58.839Z,114.70
2018-05-14T00:35:58.831Z,107.10
2018-05-14T00:36:58.832Z,112.70
2018-05-14T00:37:58.825Z,109.20
2018-05-14T00:38:58.854Z,109.90
2018-05-14T00:39:58.843Z,108.70
2018-05-14T00:40:58.842Z,112.30
2018-05-14T00:41:58.831Z,109.90
2018-05-14T00:42:58.869Z,107.00
2018-05-14T00:43:58.856Z,110.00
2018-05-14T00:44:58.849Z,107.30
2018-05-14T00:45:58.850Z,108.50
2018-05-14T00:46:58.861Z,111.70
2018-05-14T00:47:58.870Z,106.10
2018-05-14T00:48:58.866Z,105.30
2018-05-14T00:49:58.870Z,107.80
2018-05-14T00:50:58.865Z,107.80
2018-05-14T00:51:58.866Z,110.80
2018-05-14T00:52:58.879Z,110.80
2018-05-14T00:53:58.879Z,107.10
2018-05-14T00:54:58.886Z,108.90
2018-05-14T00:55:58.889Z,101.90
2018-05-14T00:56:59.383Z,105.60
2018-05-14T00:57:58.886Z,108.60
2018-05-14T00:58:58.889Z,110.80
2018-05-14T00:59:58.933Z,105.60
2018-05-14T01:00:58.928Z,105.10
2018-05-14T01:01:58.901Z,108.40
2018-05-14T01:02:58.920Z,105.30
2018-05-14T01:03:58.917Z,109.10
2018-05-14T01:04:58.916Z,108.40
2018-05-14T01:05:58.911Z,107.40
2018-05-14T01:06:58.923Z,108.50
2018-05-14T01:07:58.922Z,102.90
2018-05-14T01:08:58.951Z,106.10
2018-05-14T01:09:59.890Z,105.70
2018-05-14T01:10:58.924Z,104.30
2018-05-14T01:11:58.947Z,108.20
2018-05-14T01:12:58.932Z,106.50
2018-05-14T01:13:58.945Z,102.90
2018-05-14T01:14:58.939Z,103.10
2018-05-14T01:15:58.940Z,105.20
2018-05-14T01:16:58.944Z,105.60
2018-05-14T01:17:58.952Z,103.70
2018-05-14T01:18:58.956Z,104.90
2018-05-14T01:19:58.957Z,104.30
2018-05-14T01:20:58.961Z,106.20
2018-05-14T01:21:58.975Z,104.30
2018-05-14T01:22:58.967Z,104.20
2018-05-14T01:23:58.963Z,102.70
2018-05-14T01:24:58.965Z,102.60
2018-05-14T01:25:58.969Z,100.40
2018-05-14T01:26:58.971Z,97.70
2018-05-14T01:27:59.036Z,97.40
2018-05-14T01:28:58.980Z,93.00
2018-05-14T01:29:58.996Z,90.10
2018-05-14T01:30:58.988Z,87.40
2018-05-14T01:31:58.997Z,87.40
2018-05-14T01:32:58.989Z,87.00
2018-05-14T01:33:58.996Z,90.60
2018-05-14T01:34:59.005Z,93.10
2018-05-14T01:35:59.013Z,90.60
2018-05-14T01:36:59.000Z,90.90
2018-05-14T01:37:59.012Z,91.30
2018-05-14T01:38:59.035Z,93.40
2018-05-14T01:39:59.019Z,92.50
2018-05-14T01:40:59.041Z,92.30
2018-05-14T01:41:59.014Z,91.00
2018-05-14T01:42:59.029Z,90.80
2018-05-14T01:43:59.030Z,90.80
2018-05-14T01:44:59.059Z,89.70
2018-05-14T01:45:59.041Z,92.30
2018-05-14T01:46:59.050Z,88.10
2018-05-14T01:47:59.057Z,87.10
2018-05-14T01:48:59.038Z,88.90
2018-05-14T01:49:59.048Z,80.90
2018-05-14T01:50:59.177Z,82.50
2018-05-14T01:51:59.040Z,87.70
2018-05-14T01:52:59.077Z,83.60
2018-05-14T01:53:59.055Z,84.00
2018-05-14T01:54:59.057Z,87.00
2018-05-14T01:55:59.052Z,83.70
2018-05-14T01:56:59.086Z,87.30
2018-05-14T01:57:59.061Z,86.40
2018-05-14T01:58:59.072Z,84.40
2018-05-14T01:59:59.067Z,86.20
2018-05-14T02:00:59.088Z,87.00
2018-05-14T02:01:59.083Z,84.70
2018-05-14T02:02:59.091Z,83.30
2018-05-14T02:03:59.905Z,87.90
2018-05-14T02:04:59.091Z,85.20
2018-05-14T02:05:59.118Z,84.80
2018-05-14T02:06:59.118Z,84.10
2018-05-14T02:07:59.088Z,84.20
2018-05-14T02:08:59.105Z,84.80
2018-05-14T02:09:59.118Z,81.20
2018-05-14T02:10:59.108Z,80.90
2018-05-14T02:11:59.134Z,81.40
2018-05-14T02:12:59.117Z,81.70
2018-05-14T02:13:59.130Z,82.70
2018-05-14T02:14:59.141Z,83.00
2018-05-14T02:15:59.144Z,83.50
2018-05-14T02:16:59.144Z,84.40
2018-05-14T02:17:59.130Z,81.20
2018-05-14T02:18:59.203Z,76.80
2018-05-14T02:19:59.139Z,74.00
2018-05-14T02:20:59.140Z,69.60
2018-05-14T02:21:59.132Z,68.20
2018-05-14T02:22:59.139Z,69.50
2018-05-14T02:23:59.149Z,70.50
2018-05-14T02:24:59.154Z,68.60
2018-05-14T02:25:59.149Z,69.40
2018-05-14T02:26:59.177Z,70.20
2018-05-14T02:27:59.159Z,72.70
2018-05-14T02:28:59.156Z,72.10
2018-05-14T02:29:59.162Z,77.00
2018-05-14T02:30:59.214Z,75.20
2018-05-14T02:31:59.170Z,78.40
2018-05-14T02:32:59.164Z,76.10
2018-05-14T02:33:59.178Z,74.10
2018-05-14T02:34:59.177Z,76.90
2018-05-14T02:35:59.176Z,71.40
2018-05-14T02:36:59.180Z,74.70
2018-05-14T02:37:59.178Z,75.90
2018-05-14T02:38:59.206Z,73.50
2018-05-14T02:39:59.188Z,73.10
2018-05-14T02:40:59.194Z,77.60
2018-05-14T02:41:59.917Z,74.10
2018-05-14T02:42:59.196Z,72.80
2018-05-14T02:43:59.205Z,71.40
2018-05-14T02:44:59.234Z,74.60
2018-05-14T02:45:59.233Z,73.50
2018-05-14T02:46:59.923Z,72.50
2018-05-14T02:47:59.273Z,71.40
2018-05-14T02:48:59.224Z,71.20
2018-05-14T02:49:59.232Z,71.70
2018-05-14T02:50:59.219Z,70.10
2018-05-14T02:51:59.225Z,71.80
2018-05-14T02:52:59.233Z,70.00
2018-05-14T02:53:59.242Z,70.80
2018-05-14T02:54:59.241Z,71.40
2018-05-14T02:55:59.233Z,71.70
2018-05-14T02:56:59.244Z,72.60
2018-05-14T02:57:59.254Z,69.90
2018-05-14T02:58:59.242Z,70.40
2018-05-14T02:59:59.284Z,71.50
2018-05-14T03:00:59.261Z,70.40
2018-05-14T03:01:59.271Z,70.20
2018-05-14T03:02:59.258Z,71.00
2018-05-14T03:03:59.262Z,69.10
2018-05-14T03:04:59.294Z,68.70
2018-05-14T03:05:59.264Z,68.60
2018-05-14T03:06:59.259Z,69.90
2018-05-14T03:07:59.292Z,68.30
2018-05-14T03:08:59.281Z,66.40
2018-05-14T03:09:59.283Z,72.40
2018-05-14T03:10:59.293Z,73.20
2018-05-14T03:11:59.282Z,68.90
2018-05-14T03:12:59.314Z,68.60
2018-05-14T03:13:59.295Z,70.30
2018-05-14T03:14:59.296Z,70.80
2018-05-14T03:15:59.292Z,71.00
2018-05-14T03:16:59.308Z,69.90
2018-05-14T03:17:59.303Z,71.60
2018-05-14T03:18:59.305Z,71.20
2018-05-14T03:19:59.307Z,69.40
2018-05-14T03:20:59.314Z,69.20
2018-05-14T03:21:59.314Z,68.70
2018-05-14T03:22:59.399Z,68.10
2018-05-14T03:23:59.317Z,66.40
2018-05-14T03:24:59.314Z,68.00
2018-05-14T03:25:59.327Z,70.00
2018-05-14T03:26:59.345Z,68.30
2018-05-14T03:27:59.327Z,68.80
2018-05-14T03:28:59.338Z,68.40
2018-05-14T03:29:59.332Z,69.10
2018-05-14T03:30:59.338Z,70.10
2018-05-14T03:31:59.350Z,70.50
2018-05-14T03:32:59.346Z,68.40
2018-05-14T03:33:59.344Z,68.80
2018-05-14T03:34:59.355Z,67.10
2018-05-14T03:35:59.351Z,69.50
2018-05-14T03:36:59.356Z,67.90
2018-05-14T03:37:59.381Z,70.80
2018-05-14T03:38:59.363Z,66.90
2018-05-14T03:39:59.368Z,70.40
2018-05-14T03:40:59.366Z,68.10
2018-05-14T03:41:59.376Z,72.10
2018-05-14T03:42:59.392Z,69.80
2018-05-14T03:43:59.380Z,66.40
2018-05-14T03:44:59.390Z,67.00
2018-05-14T03:45:59.394Z,67.10
2018-05-14T03:46:59.435Z,68.00
2018-05-14T03:47:59.404Z,68.10
2018-05-14T03:48:59.421Z,68.90
2018-05-14T03:49:59.391Z,69.40
2018-05-14T03:50:59.426Z,67.10
2018-05-14T03:51:59.403Z,67.50
2018-05-14T03:52:59.393Z,72.00
2018-05-14T03:53:59.406Z,69.80
2018-05-14T03:54:59.406Z,68.50
2018-05-14T03:55:59.410Z,64.50
2018-05-14T03:56:59.412Z,64.70
2018-05-14T03:57:59.420Z,65.60
2018-05-14T03:58:59.944Z,67.40
2018-05-14T03:59:59.430Z,67.50
2018-05-14T04:00:59.459Z,69.60
2018-05-14T04:01:59.420Z,68.90
2018-05-14T04:02:59.435Z,68.70
2018-05-14T04:03:59.443Z,65.50
2018-05-14T04:04:59.433Z,66.30
2018-05-14T04:05:59.433Z,66.70
2018-05-14T04:06:59.438Z,63.50
2018-05-14T04:07:59.460Z,65.90
2018-05-14T04:08:59.457Z,69.90
2018-05-14T04:09:59.477Z,68.50
2018-05-14T04:10:59.474Z,66.30
2018-05-14T04:11:59.465Z,65.80
2018-05-14T04:12:59.471Z,67.10
2018-05-14T04:13:59.455Z,63.80
2018-05-14T04:14:59.484Z,64.30
2018-05-14T04:15:59.476Z,61.90
2018-05-14T04:16:59.492Z,63.10
2018-05-14T04:17:59.485Z,64.30
2018-05-14T04:18:59.479Z,65.30
2018-05-14T04:19:59.487Z,69.00
2018-05-14T04:20:59.489Z,66.90
2018-05-14T04:21:59.500Z,67.10
2018-05-14T04:22:59.504Z,67.40
2018-05-14T04:23:59.488Z,67.20
2018-05-14T04:24:59.487Z,67.90
2018-05-14T04:25:59.503Z,65.30
2018-05-14T04:26:59.510Z,68.70
2018-05-14T04:27:59.503Z,70.30
2018-05-14T04:28:59.508Z,69.80
2018-05-14T04:29:59.605Z,70.90
2018-05-14T04:30:59.517Z,69.70
2018-05-14T04:31:59.520Z,69.50
2018-05-14T04:32:59.539Z,69.20
2018-05-14T04:33:59.533Z,69.20
2018-05-14T04:34:59.519Z,68.50
2018-05-14T04:35:59.525Z,68.90
2018-05-14T04:36:59.541Z,68.30
2018-05-14T04:37:59.534Z,67.40
2018-05-14T04:38:59.558Z,67.90
2018-05-14T04:39:59.561Z,66.80
2018-05-14T04:40:59.546Z,62.30
2018-05-14T04:41:59.558Z,64.70
2018-05-14T04:42:59.593Z,63.80
2018-05-14T04:43:59.548Z,64.90
2018-05-14T04:44:59.559Z,63.50
2018-05-14T04:45:59.564Z,63.90
2018-05-14T04:46:59.563Z,66.80
2018-05-14T04:47:59.563Z,65.30
2018-05-14T04:48:59.561Z,66.80
2018-05-14T04:49:59.633Z,65.90
2018-05-14T04:50:59.572Z,64.10
2018-05-14T04:51:59.621Z,65.40
2018-05-14T04:52:59.575Z,66.50
2018-05-14T04:53:59.585Z,64.20
2018-05-14T04:54:59.588Z,63.50
2018-05-14T04:55:59.584Z,65.00
2018-05-14T04:56:59.601Z,64.00
2018-05-14T04:57:59.682Z,63.90
2018-05-14T04:58:59.590Z,63.20
2018-05-14T04:59:59.593Z,62.20
2018-05-14T05:00:59.622Z,64.10
2018-05-14T05:01:59.606Z,65.70
2018-05-14T05:02:59.601Z,66.20
2018-05-14T05:03:59.626Z,69.10
2018-05-14T05:04:59.617Z,67.40
2018-05-14T05:05:59.630Z,66.10
2018-05-14T05:06:59.616Z,69.00
2018-05-14T05:07:59.633Z,67.90
2018-05-14T05:08:59.622Z,67.10
2018-05-14T05:09:59.645Z,63.80
2018-05-14T05:10:59.646Z,64.10
2018-05-14T05:11:59.649Z,63.10
2018-05-14T05:12:59.656Z,65.10
2018-05-14T05:13:59.633Z,64.20
2018-05-14T05:14:59.648Z,61.20
2018-05-14T05:15:59.653Z,65.30
2018-05-14T05:16:59.760Z,65.20
2018-05-14T05:17:59.643Z,61.70
2018-05-14T05:18:59.667Z,62.50
2018-05-14T05:19:59.658Z,64.20
2018-05-14T05:20:59.650Z,61.10
2018-05-14T05:21:59.671Z,62.90
2018-05-14T05:22:59.661Z,62.10
2018-05-14T05:23:59.712Z,59.70
2018-05-14T05:24:59.680Z,62.30
2018-05-14T05:25:59.665Z,61.00
2018-05-14T05:26:59.673Z,61.40
2018-05-14T05:27:59.679Z,63.00
2018-05-14T05:28:59.684Z,62.60
2018-05-14T05:29:59.695Z,61.20
2018-05-14T05:31:00.474Z,61.80
2018-05-14T05:31:59.698Z,60.80
2018-05-14T05:32:59.698Z,61.20
2018-05-14T05:33:59.714Z,60.90
2018-05-14T05:34:59.709Z,61.40
2018-05-14T05:35:59.712Z,62.70
2018-05-14T05:36:59.720Z,61.50
2018-05-14T05:37:59.763Z,60.40
2018-05-14T05:38:59.711Z,61.10
2018-05-14T05:39:59.723Z,59.50
2018-05-14T05:40:59.716Z,61.00
2018-05-14T05:41:59.723Z,59.90
2018-05-14T05:42:59.726Z,60.10
2018-05-14T05:43:59.781Z,61.10
2018-05-14T05:44:59.733Z,62.10
2018-05-14T05:45:59.736Z,60.20
2018-05-14T05:47:00.487Z,59.40
2018-05-14T05:47:59.801Z,60.30
2018-05-14T05:48:59.744Z,59.70
2018-05-14T05:49:59.744Z,61.50
2018-05-14T05:50:59.807Z,59.30
2018-05-14T05:51:59.779Z,60.50
2018-05-14T05:52:59.780Z,58.30
2018-05-14T05:53:59.766Z,57.00
2018-05-14T05:54:59.808Z,59.30
2018-05-14T05:55:59.762Z,57.70
2018-05-14T05:56:59.765Z,57.50
2018-05-14T05:57:59.768Z,58.30
2018-05-14T05:58:59.779Z,58.10
2018-05-14T05:59:59.780Z,58.10
2018-05-14T06:00:59.786Z,59.30
2018-05-14T06:01:59.833Z,57.50
2018-05-14T06:02:59.797Z,57.80
2018-05-14T06:03:59.789Z,59.80
2018-05-14T06:04:59.794Z,59.80
2018-05-14T06:05:59.816Z,57.20
2018-05-14T06:06:59.790Z,58.70
2018-05-14T06:07:59.828Z,54.10
2018-05-14T06:08:59.819Z,52.90
2018-05-14T06:09:59.807Z,53.40
2018-05-14T06:10:59.817Z,52.10
2018-05-14T06:12:00.489Z,52.70
2018-05-14T06:12:59.830Z,54.50
2018-05-14T06:13:59.829Z,53.70
2018-05-14T06:14:59.835Z,53.70
2018-05-14T06:15:59.838Z,54.70
2018-05-14T06:16:59.830Z,54.80
2018-05-14T06:17:59.852Z,54.00
2018-05-14T06:18:59.850Z,53.30
2018-05-14T06:19:59.870Z,53.80
2018-05-14T06:20:59.848Z,51.80
2018-05-14T06:21:59.859Z,52.80
2018-05-14T06:22:59.883Z,54.80
2018-05-14T06:23:59.845Z,54.30
2018-05-14T06:25:00.052Z,55.80
2018-05-14T06:25:59.852Z,53.90
2018-05-14T06:26:59.869Z,53.80
2018-05-14T06:27:59.866Z,51.90
2018-05-14T06:28:59.869Z,52.70
2018-05-14T06:29:59.892Z,52.90
2018-05-14T06:30:59.907Z,52.60
2018-05-14T06:31:59.894Z,51.00
2018-05-14T06:32:59.878Z,52.60
2018-05-14T06:33:59.902Z,52.20
2018-05-14T06:34:59.893Z,51.00
2018-05-14T06:35:59.930Z,50.80
2018-05-14T06:36:59.919Z,51.30
2018-05-14T06:38:00.507Z,50.20
2018-05-14T06:39:00.054Z,48.60
2018-05-14T06:40:00.156Z,49.30
2018-05-14T06:40:59.934Z,51.20
2018-05-14T06:41:59.955Z,50.30
2018-05-14T06:42:59.940Z,48.70
2018-05-14T06:43:59.941Z,49.20
2018-05-14T06:44:59.977Z,47.10
2018-05-14T06:45:59.947Z,47.00
2018-05-14T06:46:59.966Z,46.00
2018-05-14T06:48:00.001Z,45.80
2018-05-14T06:48:59.964Z,45.30
2018-05-14T06:49:59.965Z,42.50
2018-05-14T06:50:59.998Z,42.60
2018-05-14T06:52:00.019Z,40.70
2018-05-14T06:53:00.520Z,39.60
2018-05-14T06:54:00.017Z,39.10
2018-05-14T06:54:59.988Z,38.50
2018-05-14T06:56:00.119Z,38.30
2018-05-14T06:57:00.044Z,39.40
2018-05-14T06:58:00.044Z,39.20
2018-05-14T06:59:00.122Z,38.30
2018-05-14T07:00:00.136Z,36.60
2018-05-14T07:01:00.107Z,37.00
2018-05-14T07:02:00.065Z,37.40
2018-05-14T07:03:00.068Z,36.30
2018-05-14T07:04:00.060Z,37.40
2018-05-14T07:05:00.095Z,36.00
2018-05-14T07:06:00.135Z,36.30
2018-05-14T07:07:00.138Z,36.90
2018-05-14T07:08:00.351Z,36.70
2018-05-14T07:09:00.163Z,34.40
2018-05-14T07:10:02.030Z,36.10
2018-05-14T07:11:00.135Z,34.50
2018-05-14T07:12:00.189Z,34.40
2018-05-14T07:13:00.232Z,34.80
2018-05-14T07:14:00.225Z,35.40
2018-05-14T07:15:00.195Z,38.70
2018-05-14T07:16:00.197Z,35.50
2018-05-14T07:17:00.192Z,35.60
2018-05-14T07:18:00.253Z,34.30
2018-05-14T07:19:00.232Z,35.00
2018-05-14T07:20:00.242Z,35.80
2018-05-14T07:21:00.231Z,34.10
2018-05-14T07:22:00.256Z,34.30
2018-05-14T07:23:00.271Z,34.10
2018-05-14T07:24:00.251Z,33.60
2018-05-14T07:25:00.373Z,32.30
2018-05-14T07:26:00.314Z,32.90
2018-05-14T07:27:00.308Z,32.70
2018-05-14T07:28:00.408Z,32.10
2018-05-14T07:29:01.034Z,32.70
2018-05-14T07:30:00.330Z,32.20
2018-05-14T07:31:00.807Z,30.60
2018-05-14T07:32:01.594Z,31.70
2018-05-14T07:33:00.401Z,30.60
2018-05-14T07:34:01.052Z,30.70
2018-05-14T07:35:01.172Z,30.10
2018-05-14T07:36:00.477Z,29.00
2018-05-14T07:37:00.539Z,31.20
2018-05-14T07:38:07.535Z,30.20
2018-05-14T07:40:00.605Z,28.20
2018-05-14T07:41:00.475Z,29.00
2018-05-14T07:42:00.499Z,28.30
2018-05-14T07:43:00.492Z,28.70
2018-05-14T07:44:00.517Z,28.80
2018-05-14T07:45:00.714Z,30.20
2018-05-14T07:46:00.542Z,27.80
2018-05-14T07:47:00.771Z,28.10
2018-05-14T07:48:00.589Z,27.50
2018-05-14T07:49:00.883Z,28.30
2018-05-14T07:50:00.610Z,28.90
2018-05-14T07:51:01.536Z,29.00
2018-05-14T07:52:00.678Z,29.10
2018-05-14T07:53:00.889Z,27.70
2018-05-14T07:54:00.734Z,27.10
2018-05-14T07:55:00.784Z,27.50
2018-05-14T07:56:00.763Z,26.80
2018-05-14T07:57:00.921Z,26.20
2018-05-14T07:58:01.052Z,27.60
2018-05-14T07:59:00.741Z,27.80
2018-05-14T08:00:00.809Z,27.30
2018-05-14T08:01:00.792Z,26.80
2018-05-14T08:02:07.934Z,26.20
2018-05-14T08:03:01.814Z,25.80
2018-05-14T08:04:01.774Z,26.70
2018-05-14T08:05:01.272Z,25.60
2018-05-14T08:06:00.863Z,26.00
2018-05-14T08:07:02.416Z,26.10
2018-05-14T08:08:24.029Z,25.90
2018-05-14T08:09:02.123Z,26.60
2018-05-14T08:10:00.890Z,25.70
2018-05-14T08:11:01.034Z,25.30
2018-05-14T08:12:02.784Z,26.00
2018-05-14T08:13:01.205Z,25.40
2018-05-14T08:14:00.948Z,26.10
2018-05-14T08:15:01.749Z,24.60
2018-05-14T08:16:01.019Z,24.40
2018-05-14T08:17:01.158Z,23.10
2018-05-14T08:18:01.004Z,24.70
2018-05-14T08:19:01.065Z,24.70
2018-05-14T08:20:01.071Z,26.00
2018-05-14T08:21:01.078Z,24.60
2018-05-14T08:22:01.125Z,23.80
2018-05-14T08:23:01.110Z,23.30
2018-05-14T08:24:01.187Z,25.00
2018-05-14T08:25:01.148Z,24.00
2018-05-14T08:26:01.162Z,25.20
2018-05-14T08:27:01.159Z,24.70
2018-05-14T08:28:01.225Z,24.40
2018-05-14T08:29:01.208Z,23.50
2018-05-14T08:30:01.290Z,24.00
2018-05-14T08:31:01.216Z,23.60
2018-05-14T08:32:01.300Z,23.40
2018-05-14T08:33:01.297Z,23.50
2018-05-14T08:34:01.296Z,23.00
2018-05-14T08:35:01.470Z,23.20
2018-05-14T08:36:01.374Z,22.40
2018-05-14T08:37:01.426Z,23.30
2018-05-14T08:38:01.375Z,21.90
2018-05-14T08:39:01.432Z,22.30
2018-05-14T08:40:01.381Z,22.90
2018-05-14T08:41:01.410Z,22.30
2018-05-14T08:42:01.544Z,22.30
2018-05-14T08:43:01.457Z,21.20
2018-05-14T08:44:01.455Z,20.50
2018-05-14T08:45:01.484Z,20.00
2018-05-14T08:46:01.527Z,20.60
2018-05-14T08:47:01.588Z,21.00
2018-05-14T08:48:02.219Z,21.80
2018-05-14T08:49:01.556Z,21.10
2018-05-14T08:50:01.697Z,20.90
2018-05-14T08:51:01.632Z,20.60
2018-05-14T08:52:01.971Z,22.20
2018-05-14T08:53:01.637Z,21.10
2018-05-14T08:54:01.645Z,20.20
2018-05-14T08:55:01.655Z,21.30
2018-05-14T08:56:01.679Z,20.50
2018-05-14T08:57:02.611Z,19.50
2018-05-14T08:58:01.754Z,19.60
2018-05-14T08:59:01.782Z,20.60
2018-05-14T09:00:01.830Z,20.40
2018-05-14T09:01:01.789Z,21.50
2018-05-14T09:02:01.800Z,20.70
2018-05-14T09:03:01.799Z,19.70
2018-05-14T09:04:01.823Z,21.40
2018-05-14T09:05:01.885Z,21.00
2018-05-14T09:06:01.914Z,19.80
2018-05-14T09:07:01.930Z,20.30
2018-05-14T09:08:02.050Z,20.00
2018-05-14T09:09:01.921Z,18.30
2018-05-14T09:10:02.616Z,20.10
2018-05-14T09:11:01.971Z,18.60
2018-05-14T09:12:01.987Z,17.60
2018-05-14T09:13:02.078Z,17.70
2018-05-14T09:14:02.710Z,17.90
2018-05-14T09:15:02.042Z,18.40
2018-05-14T09:16:02.075Z,18.00
2018-05-14T09:17:02.198Z,18.50
2018-05-14T09:18:02.136Z,18.30
2018-05-14T09:19:02.136Z,18.30
2018-05-14T09:20:02.163Z,18.70
2018-05-14T09:21:02.167Z,17.70
2018-05-14T09:22:03.136Z,18.00
2018-05-14T09:23:02.210Z,19.30
2018-05-14T09:24:02.297Z,18.00
2018-05-14T09:25:02.260Z,18.20
2018-05-14T09:26:03.191Z,16.70
2018-05-14T09:27:02.422Z,16.30
2018-05-14T09:28:02.311Z,16.90
2018-05-14T09:29:03.231Z,17.20
2018-05-14T09:30:02.494Z,16.60
2018-05-14T09:31:02.433Z,16.40
2018-05-14T09:32:02.429Z,17.10
2018-05-14T09:33:02.418Z,15.60
2018-05-14T09:34:02.444Z,16.20
2018-05-14T09:35:02.472Z,15.40
2018-05-14T09:36:02.483Z,15.70
2018-05-14T09:37:02.569Z,15.80
2018-05-14T09:38:02.572Z,14.80
2018-05-14T09:39:02.731Z,13.80
2018-05-14T09:40:02.612Z,14.40
2018-05-14T09:41:02.598Z,14.70
2018-05-14T09:42:02.657Z,13.50
2018-05-14T09:43:02.644Z,13.40
2018-05-14T09:44:02.669Z,13.10
2018-05-14T09:45:02.700Z,13.20
2018-05-14T09:46:02.720Z,13.20
2018-05-14T09:47:02.730Z,12.50
2018-05-14T09:48:02.759Z,12.60
2018-05-14T09:49:02.769Z,12.30
2018-05-14T09:50:02.816Z,12.30
2018-05-14T09:51:02.813Z,12.60
2018-05-14T09:52:02.899Z,12.10
2018-05-14T09:53:02.847Z,11.90
2018-05-14T09:54:02.885Z,11.90
2018-05-14T09:55:02.947Z,11.50
2018-05-14T09:56:02.944Z,11.50
2018-05-14T09:57:02.963Z,11.70
2018-05-14T09:58:02.993Z,11.30
2018-05-14T09:59:03.025Z,13.10
2018-05-14T10:00:03.015Z,11.40
2018-05-14T10:01:03.042Z,12.40
2018-05-14T10:02:03.655Z,12.10
2018-05-14T10:03:03.650Z,12.20
2018-05-14T10:04:03.650Z,11.70
2018-05-14T10:05:04.154Z,11.50
2018-05-14T10:06:04.149Z,10.90
2018-05-14T10:07:04.147Z,11.30
2018-05-14T10:08:03.243Z,11.10
2018-05-14T10:09:03.352Z,10.60
2018-05-14T10:10:04.162Z,11.10
2018-05-14T10:11:04.173Z,12.20
2018-05-14T10:12:03.784Z,11.10
2018-05-14T10:13:03.340Z,10.50
2018-05-14T10:14:03.347Z,11.10
2018-05-14T10:15:03.442Z,10.70
2018-05-14T10:16:03.854Z,11.70
2018-05-14T10:17:03.455Z,11.60
2018-05-14T10:18:03.464Z,11.00
2018-05-14T10:19:03.699Z,10.20
2018-05-14T10:20:03.491Z,10.50
2018-05-14T10:21:03.509Z,11.10
2018-05-14T10:22:03.529Z,10.40
2018-05-14T10:23:03.680Z,11.30
2018-05-14T10:24:03.675Z,10.60
2018-05-14T10:25:04.320Z,10.10
2018-05-14T10:26:03.623Z,10.50
2018-05-14T10:27:03.642Z,9.40
2018-05-14T10:28:03.739Z,9.60
2018-05-14T10:29:03.685Z,9.60
2018-05-14T10:30:04.689Z,9.90
2018-05-14T10:31:05.167Z,9.90
2018-05-14T10:32:07.210Z,9.60
2018-05-14T10:33:03.786Z,10.10
2018-05-14T10:34:03.797Z,9.30
2018-05-14T10:35:03.838Z,9.00
2018-05-14T10:36:03.860Z,9.10
2018-05-14T10:37:03.873Z,9.10
2018-05-14T10:38:03.898Z,9.60
2018-05-14T10:39:03.922Z,8.90
2018-05-14T10:40:04.056Z,9.10
2018-05-14T10:41:04.024Z,9.40
2018-05-14T10:42:03.973Z,9.40
2018-05-14T10:43:04.676Z,8.80
2018-05-14T10:44:04.110Z,9.10
2018-05-14T10:45:04.055Z,9.40
2018-05-14T10:46:04.074Z,9.60
2018-05-14T10:47:04.073Z,10.40
2018-05-14T10:48:04.196Z,10.10
2018-05-14T10:49:04.121Z,10.60
2018-05-14T10:50:04.131Z,9.90
2018-05-14T10:51:04.151Z,9.90
2018-05-14T10:52:04.263Z,9.60
2018-05-14T10:53:04.302Z,9.70
2018-05-14T10:54:04.228Z,10.10
2018-05-14T10:55:04.226Z,9.60
2018-05-14T10:56:04.254Z,9.30
2018-05-14T10:57:04.253Z,10.10
2018-05-14T10:58:04.323Z,9.20
2018-05-14T10:59:04.292Z,9.60
2018-05-14T11:00:04.332Z,9.70
2018-05-14T11:01:04.341Z,9.00
2018-05-14T11:02:04.331Z,9.60
2018-05-14T11:03:04.427Z,9.40
2018-05-14T11:04:04.405Z,9.90
2018-05-14T11:05:04.391Z,9.10
2018-05-14T11:06:04.399Z,8.50
2018-05-14T11:07:04.437Z,9.40
2018-05-14T11:08:04.460Z,9.00
2018-05-14T11:09:29.690Z,9.00
2018-05-14T11:10:05.193Z,9.00
2018-05-14T11:11:04.480Z,9.20
2018-05-14T11:12:04.501Z,9.20
2018-05-14T11:13:04.565Z,8.90
2018-05-14T11:14:04.500Z,8.70
2018-05-14T11:15:04.512Z,9.10
2018-05-14T11:16:04.529Z,8.80
2018-05-14T11:17:04.545Z,8.80
2018-05-14T11:18:04.555Z,9.30
2018-05-14T11:19:04.558Z,9.70
2018-05-14T11:20:04.566Z,9.20
2018-05-14T11:21:04.576Z,8.30
2018-05-14T11:22:04.640Z,8.10
2018-05-14T11:23:05.282Z,9.10
2018-05-14T11:24:04.635Z,8.60
2018-05-14T11:25:04.679Z,8.60
2018-05-14T11:26:04.641Z,8.30
2018-05-14T11:27:04.683Z,8.20
2018-05-14T11:28:04.655Z,8.10
2018-05-14T11:29:04.686Z,8.30
2018-05-14T11:30:04.694Z,7.80
2018-05-14T11:31:04.726Z,7.50
2018-05-14T11:32:04.917Z,8.30
2018-05-14T11:33:06.586Z,7.60
2018-05-14T11:34:04.759Z,7.80
2018-05-14T11:35:04.734Z,7.70
2018-05-14T11:36:04.792Z,7.60
2018-05-14T11:37:06.924Z,7.70
2018-05-14T11:38:05.309Z,7.30
2018-05-14T11:39:04.892Z,7.00
2018-05-14T11:40:04.803Z,7.70
2018-05-14T11:41:04.787Z,6.90
2018-05-14T11:42:05.188Z,6.40
2018-05-14T11:43:04.832Z,8.10
2018-05-14T11:44:04.845Z,7.50
2018-05-14T11:45:04.825Z,7.40
2018-05-14T11:46:04.948Z,6.60
2018-05-14T11:47:04.905Z,6.50
2018-05-14T11:48:04.847Z,6.40
2018-05-14T11:49:04.895Z,6.50
2018-05-14T11:50:04.910Z,6.20
2018-05-14T11:51:05.053Z,6.10
2018-05-14T11:52:05.019Z,6.80
2018-05-14T11:53:04.919Z,6.70
2018-05-14T11:54:05.716Z,6.60
2018-05-14T11:55:04.938Z,6.10
2018-05-14T11:56:05.015Z,6.10
2018-05-14T11:57:04.936Z,6.70
2018-05-14T11:58:04.958Z,6.30
2018-05-14T11:59:04.958Z,6.70
2018-05-14T12:00:04.968Z,6.60
2018-05-14T12:01:05.316Z,6.90
2018-05-14T12:02:05.038Z,6.40
2018-05-14T12:03:05.073Z,6.30
2018-05-14T12:04:05.048Z,6.70
2018-05-14T12:05:05.136Z,6.40
2018-05-14T12:06:05.032Z,6.20
2018-05-14T12:07:05.041Z,6.70
2018-05-14T12:08:07.796Z,6.10
2018-05-14T12:09:05.068Z,5.80
2018-05-14T12:10:05.868Z,6.10
2018-05-14T12:12:47.663Z,6.00
2018-05-14T12:13:37.254Z,6.10
2018-05-14T12:14:37.264Z,6.00
2018-05-14T12:15:37.674Z,6.30
2018-05-14T12:16:37.256Z,5.90
2018-05-14T12:17:37.216Z,5.90
2018-05-14T12:18:37.325Z,6.20
2018-05-14T12:19:37.245Z,6.10
2018-05-14T12:20:37.272Z,6.60
2018-05-14T12:21:37.480Z,5.60
2018-05-14T12:22:37.330Z,5.80
2018-05-14T12:23:37.262Z,6.40
2018-05-14T12:25:13.293Z,5.40
2018-05-14T12:25:37.433Z,5.90
2018-05-14T12:26:37.371Z,5.50
2018-05-14T12:27:37.357Z,6.20
2018-05-14T12:28:37.361Z,5.90
2018-05-14T12:29:37.381Z,6.10
2018-05-14T12:30:38.160Z,6.00
2018-05-14T12:31:37.358Z,5.90
2018-05-14T12:32:37.370Z,5.30
2018-05-14T12:33:37.435Z,6.10
2018-05-14T12:34:37.506Z,5.90
2018-05-14T12:35:37.425Z,6.00
2018-05-14T12:36:37.457Z,5.90
2018-05-14T12:37:37.478Z,5.70
2018-05-14T12:38:37.452Z,5.80
2018-05-14T12:40:39.678Z,5.50
2018-05-14T12:42:01.699Z,5.80
2018-05-14T12:42:54.195Z,6.00
2018-05-14T12:43:39.695Z,5.20
2018-05-14T12:44:38.747Z,5.80
2018-05-14T12:45:37.485Z,5.40
2018-05-14T12:46:37.466Z,5.50
2018-05-14T12:47:37.480Z,5.00
2018-05-14T12:48:37.569Z,5.10
2018-05-14T12:49:37.531Z,5.50
2018-05-14T12:50:37.585Z,5.20
2018-05-14T12:51:37.590Z,5.60
2018-05-14T12:52:37.539Z,5.60
2018-05-14T12:53:37.721Z,5.30
2018-05-14T12:54:37.532Z,5.20
2018-05-14T12:55:37.635Z,5.40
2018-05-14T12:56:37.580Z,5.40
2018-05-14T12:57:37.615Z,5.40
2018-05-14T12:58:37.576Z,5.20